sensor_id;sensor_type;location;lat;lon;timestamp;temperature;humidity
62904;DHT22;49000;50.698;13.322;2024-02-21T00:00:04;5.20;1.00
62904;DHT22;49000;50.698;13.322;2024-02-21T00:02:30;5.20;1.00
62904;DHT22;49000;50.698;13.322;2024-02-21T00:04:55;5.00;1.00
62904;DHT22;49000;50.698;13.322;2024-02-21T00:07:21;5.00;1.00
62904;DHT22;49000;50.698;13.322;2024-02-21T00:09:46;4.60;1.00
62904;DHT22;49000;50.698;13.322;2024-02-21T00:12:12;5.00;1.00
62904;DHT22;49000;50.698;13.322;2024-02-21T00:14:39;4.80;1.00
62904;DHT22;49000;50.698;13.322;2024-02-21T00:17:05;5.20;1.00
62904;DHT22;49000;50.698;13.322;2024-02-21T00:19:31;4.70;1.00
62904;DHT22;49000;50.698;13.322;2024-02-21T00:21:56;4.60;1.00
62904;DHT22;49000;50.698;13.322;2024-02-21T00:24:22;5.00;1.00
62904;DHT22;49000;50.698;13.322;2024-02-21T00:26:47;5.10;1.00
62904;DHT22;49000;50.698;13.322;2024-02-21T00:29:13;4.60;1.00
62904;DHT22;49000;50.698;13.322;2024-02-21T00:31:38;5.00;1.00
62904;DHT22;49000;50.698;13.322;2024-02-21T00:34:04;4.70;1.00
62904;DHT22;49000;50.698;13.322;2024-02-21T00:36:29;4.60;1.00
62904;DHT22;49000;50.698;13.322;2024-02-21T00:38:55;5.00;1.00
62904;DHT22;49000;50.698;13.322;2024-02-21T00:41:20;4.70;1.00
62904;DHT22;49000;50.698;13.322;2024-02-21T00:43:46;4.90;1.00
62904;DHT22;49000;50.698;13.322;2024-02-21T00:46:13;5.00;1.00
62904;DHT22;49000;50.698;13.322;2024-02-21T00:48:39;5.00;1.00
62904;DHT22;49000;50.698;13.322;2024-02-21T00:51:05;4.50;1.00
62904;DHT22;49000;50.698;13.322;2024-02-21T00:53:30;4.80;1.00
62904;DHT22;49000;50.698;13.322;2024-02-21T00:55:55;4.80;1.00
62904;DHT22;49000;50.698;13.322;2024-02-21T00:58:22;4.40;1.00
62904;DHT22;49000;50.698;13.322;2024-02-21T01:00:47;4.80;1.00
62904;DHT22;49000;50.698;13.322;2024-02-21T01:03:13;4.80;1.00
62904;DHT22;49000;50.698;13.322;2024-02-21T01:05:38;4.90;1.00
62904;DHT22;49000;50.698;13.322;2024-02-21T01:08:04;4.90;1.00
62904;DHT22;49000;50.698;13.322;2024-02-21T01:10:30;4.90;1.00
62904;DHT22;49000;50.698;13.322;2024-02-21T01:12:55;4.70;1.00
62904;DHT22;49000;50.698;13.322;2024-02-21T01:15:21;4.80;1.00
62904;DHT22;49000;50.698;13.322;2024-02-21T01:17:46;4.80;1.00
62904;DHT22;49000;50.698;13.322;2024-02-21T01:20:12;4.70;1.00
62904;DHT22;49000;50.698;13.322;2024-02-21T01:22:38;4.40;1.00
62904;DHT22;49000;50.698;13.322;2024-02-21T01:25:03;4.30;1.00
62904;DHT22;49000;50.698;13.322;2024-02-21T01:27:29;4.70;1.00
62904;DHT22;49000;50.698;13.322;2024-02-21T01:29:55;4.60;1.00
62904;DHT22;49000;50.698;13.322;2024-02-21T01:32:22;4.10;1.00
62904;DHT22;49000;50.698;13.322;2024-02-21T01:34:49;4.60;1.00
62904;DHT22;49000;50.698;13.322;2024-02-21T01:37:15;4.30;1.00
62904;DHT22;49000;50.698;13.322;2024-02-21T01:39:40;4.10;1.00
62904;DHT22;49000;50.698;13.322;2024-02-21T01:42:06;4.20;1.00
62904;DHT22;49000;50.698;13.322;2024-02-21T01:44:32;4.50;1.00
62904;DHT22;49000;50.698;13.322;2024-02-21T01:46:57;4.40;1.00
62904;DHT22;49000;50.698;13.322;2024-02-21T01:49:23;4.00;1.00
62904;DHT22;49000;50.698;13.322;2024-02-21T01:51:49;4.40;1.00
62904;DHT22;49000;50.698;13.322;2024-02-21T01:54:15;4.20;1.00
62904;DHT22;49000;50.698;13.322;2024-02-21T01:56:41;4.40;1.00
62904;DHT22;49000;50.698;13.322;2024-02-21T01:59:07;4.40;1.00
62904;DHT22;49000;50.698;13.322;2024-02-21T02:01:33;4.50;1.00
62904;DHT22;49000;50.698;13.322;2024-02-21T02:03:59;4.50;1.00
62904;DHT22;49000;50.698;13.322;2024-02-21T02:06:25;4.30;1.00
62904;DHT22;49000;50.698;13.322;2024-02-21T02:08:50;4.30;1.00
62904;DHT22;49000;50.698;13.322;2024-02-21T02:11:16;4.30;15.90
62904;DHT22;49000;50.698;13.322;2024-02-21T02:13:42;4.10;20.60
62904;DHT22;49000;50.698;13.322;2024-02-21T02:16:07;4.40;22.60
62904;DHT22;49000;50.698;13.322;2024-02-21T02:18:33;4.10;27.30
62904;DHT22;49000;50.698;13.322;2024-02-21T02:20:58;4.30;38.30
62904;DHT22;49000;50.698;13.322;2024-02-21T02:23:29;4.20;46.90
62904;DHT22;49000;50.698;13.322;2024-02-21T02:25:55;4.50;48.90
62904;DHT22;49000;50.698;13.322;2024-02-21T02:28:21;4.20;47.50
62904;DHT22;49000;50.698;13.322;2024-02-21T02:30:47;3.80;51.90
62904;DHT22;49000;50.698;13.322;2024-02-21T02:33:12;4.10;53.50
62904;DHT22;49000;50.698;13.322;2024-02-21T02:35:38;3.90;64.90
62904;DHT22;49000;50.698;13.322;2024-02-21T02:38:04;4.50;75.20
62904;DHT22;49000;50.698;13.322;2024-02-21T02:40:30;4.00;86.20
62904;DHT22;49000;50.698;13.322;2024-02-21T02:42:55;4.30;92.60
62904;DHT22;49000;50.698;13.322;2024-02-21T02:45:22;4.50;92.50
62904;DHT22;49000;50.698;13.322;2024-02-21T02:47:52;4.50;94.30
62904;DHT22;49000;50.698;13.322;2024-02-21T02:50:19;4.10;98.10
62904;DHT22;49000;50.698;13.322;2024-02-21T02:52:45;4.40;99.90
62904;DHT22;49000;50.698;13.322;2024-02-21T02:55:10;4.40;99.90
62904;DHT22;49000;50.698;13.322;2024-02-21T02:57:36;4.40;99.90
62904;DHT22;49000;50.698;13.322;2024-02-21T03:00:01;4.60;99.90
62904;DHT22;49000;50.698;13.322;2024-02-21T03:02:27;4.40;99.90
62904;DHT22;49000;50.698;13.322;2024-02-21T03:04:53;4.50;99.90
62904;DHT22;49000;50.698;13.322;2024-02-21T03:07:19;4.60;99.90
62904;DHT22;49000;50.698;13.322;2024-02-21T03:09:44;4.40;99.90
62904;DHT22;49000;50.698;13.322;2024-02-21T03:12:10;4.60;99.90
62904;DHT22;49000;50.698;13.322;2024-02-21T03:14:36;4.00;99.90
62904;DHT22;49000;50.698;13.322;2024-02-21T03:17:02;4.10;99.90
62904;DHT22;49000;50.698;13.322;2024-02-21T03:19:28;4.00;99.90
62904;DHT22;49000;50.698;13.322;2024-02-21T03:21:54;4.50;99.90
62904;DHT22;49000;50.698;13.322;2024-02-21T03:24:20;4.70;99.90
62904;DHT22;49000;50.698;13.322;2024-02-21T03:26:46;4.50;97.30
62904;DHT22;49000;50.698;13.322;2024-02-21T03:29:16;4.20;94.50
62904;DHT22;49000;50.698;13.322;2024-02-21T03:31:42;4.10;92.60
62904;DHT22;49000;50.698;13.322;2024-02-21T03:34:08;4.20;91.10
62904;DHT22;49000;50.698;13.322;2024-02-21T03:36:48;4.50;86.50
62904;DHT22;49000;50.698;13.322;2024-02-21T03:39:14;4.80;85.10
62904;DHT22;49000;50.698;13.322;2024-02-21T03:41:39;4.60;75.20
62904;DHT22;49000;50.698;13.322;2024-02-21T03:44:05;4.80;75.40
62904;DHT22;49000;50.698;13.322;2024-02-21T03:46:30;4.70;75.30
62904;DHT22;49000;50.698;13.322;2024-02-21T03:48:56;4.60;75.20
62904;DHT22;49000;50.698;13.322;2024-02-21T03:51:22;4.80;75.40
62904;DHT22;49000;50.698;13.322;2024-02-21T03:53:47;4.50;74.00
62904;DHT22;49000;50.698;13.322;2024-02-21T03:56:13;4.70;67.40
62904;DHT22;49000;50.698;13.322;2024-02-21T03:58:38;4.60;63.20
62904;DHT22;49000;50.698;13.322;2024-02-21T04:01:04;4.60;68.90
62904;DHT22;49000;50.698;13.322;2024-02-21T04:03:30;4.40;72.50
62904;DHT22;49000;50.698;13.322;2024-02-21T04:05:56;4.80;70.10
62904;DHT22;49000;50.698;13.322;2024-02-21T04:08:23;4.30;64.80
62904;DHT22;49000;50.698;13.322;2024-02-21T04:10:48;4.60;58.40
62904;DHT22;49000;50.698;13.322;2024-02-21T04:13:14;4.30;29.20
62904;DHT22;49000;50.698;13.322;2024-02-21T04:15:39;4.80;24.90
62904;DHT22;49000;50.698;13.322;2024-02-21T04:18:05;4.80;18.70
62904;DHT22;49000;50.698;13.322;2024-02-21T04:20:31;4.80;12.20
62904;DHT22;49000;50.698;13.322;2024-02-21T04:22:57;4.60;12.80
62904;DHT22;49000;50.698;13.322;2024-02-21T04:25:22;4.50;1.30
62904;DHT22;49000;50.698;13.322;2024-02-21T04:27:48;4.80;1.00
62904;DHT22;49000;50.698;13.322;2024-02-21T04:30:14;4.40;1.00
62904;DHT22;49000;50.698;13.322;2024-02-21T04:32:40;4.80;1.00
62904;DHT22;49000;50.698;13.322;2024-02-21T04:35:06;4.30;1.00
62904;DHT22;49000;50.698;13.322;2024-02-21T04:37:32;4.90;1.00
62904;DHT22;49000;50.698;13.322;2024-02-21T04:39:57;4.80;1.00
62904;DHT22;49000;50.698;13.322;2024-02-21T04:42:23;4.70;1.00
62904;DHT22;49000;50.698;13.322;2024-02-21T04:44:48;4.50;1.00
62904;DHT22;49000;50.698;13.322;2024-02-21T04:47:14;4.70;1.00
62904;DHT22;49000;50.698;13.322;2024-02-21T04:49:40;4.90;1.00
62904;DHT22;49000;50.698;13.322;2024-02-21T04:52:05;4.40;1.00
62904;DHT22;49000;50.698;13.322;2024-02-21T04:54:31;4.60;1.00
62904;DHT22;49000;50.698;13.322;2024-02-21T04:56:56;4.90;1.00
62904;DHT22;49000;50.698;13.322;2024-02-21T04:59:22;4.80;1.00
62904;DHT22;49000;50.698;13.322;2024-02-21T05:01:47;4.80;1.00
62904;DHT22;49000;50.698;13.322;2024-02-21T05:04:12;4.70;1.00
62904;DHT22;49000;50.698;13.322;2024-02-21T05:06:39;5.00;1.00
62904;DHT22;49000;50.698;13.322;2024-02-21T05:09:05;4.80;1.00
62904;DHT22;49000;50.698;13.322;2024-02-21T05:11:31;4.40;1.00
62904;DHT22;49000;50.698;13.322;2024-02-21T05:13:56;4.80;1.00
62904;DHT22;49000;50.698;13.322;2024-02-21T05:16:22;4.50;1.00
62904;DHT22;49000;50.698;13.322;2024-02-21T05:18:47;4.60;1.00
62904;DHT22;49000;50.698;13.322;2024-02-21T05:21:13;4.40;1.00
62904;DHT22;49000;50.698;13.322;2024-02-21T05:23:38;4.80;1.00
62904;DHT22;49000;50.698;13.322;2024-02-21T05:26:05;4.80;1.00
62904;DHT22;49000;50.698;13.322;2024-02-21T05:28:31;5.10;1.00
62904;DHT22;49000;50.698;13.322;2024-02-21T05:30:56;4.90;1.00
62904;DHT22;49000;50.698;13.322;2024-02-21T05:33:22;4.90;1.00
62904;DHT22;49000;50.698;13.322;2024-02-21T05:35:47;4.90;1.00
62904;DHT22;49000;50.698;13.322;2024-02-21T05:38:14;4.80;1.00
62904;DHT22;49000;50.698;13.322;2024-02-21T05:40:40;4.80;1.00
62904;DHT22;49000;50.698;13.322;2024-02-21T05:43:07;4.60;1.00
62904;DHT22;49000;50.698;13.322;2024-02-21T05:45:32;4.60;1.00
62904;DHT22;49000;50.698;13.322;2024-02-21T05:47:58;5.00;1.00
62904;DHT22;49000;50.698;13.322;2024-02-21T05:50:23;4.90;1.00
62904;DHT22;49000;50.698;13.322;2024-02-21T05:52:51;4.60;1.00
62904;DHT22;49000;50.698;13.322;2024-02-21T05:55:17;5.10;1.00
62904;DHT22;49000;50.698;13.322;2024-02-21T05:57:43;5.00;1.00
62904;DHT22;49000;50.698;13.322;2024-02-21T06:00:09;4.90;1.00
62904;DHT22;49000;50.698;13.322;2024-02-21T06:02:34;4.90;1.00
62904;DHT22;49000;50.698;13.322;2024-02-21T06:05:00;4.90;1.00
62904;DHT22;49000;50.698;13.322;2024-02-21T06:07:25;5.00;1.00
62904;DHT22;49000;50.698;13.322;2024-02-21T06:09:51;4.90;1.00
62904;DHT22;49000;50.698;13.322;2024-02-21T06:12:16;5.20;1.00
62904;DHT22;49000;50.698;13.322;2024-02-21T06:14:42;4.60;1.00
62904;DHT22;49000;50.698;13.322;2024-02-21T06:17:07;4.80;1.00
62904;DHT22;49000;50.698;13.322;2024-02-21T06:19:33;4.80;1.00
62904;DHT22;49000;50.698;13.322;2024-02-21T06:21:58;5.10;1.00
62904;DHT22;49000;50.698;13.322;2024-02-21T06:24:24;4.90;1.00
62904;DHT22;49000;50.698;13.322;2024-02-21T06:26:50;4.90;1.00
62904;DHT22;49000;50.698;13.322;2024-02-21T06:29:15;5.00;1.00
62904;DHT22;49000;50.698;13.322;2024-02-21T06:31:40;4.90;1.00
62904;DHT22;49000;50.698;13.322;2024-02-21T06:34:06;5.00;1.00
62904;DHT22;49000;50.698;13.322;2024-02-21T06:36:32;4.80;1.00
62904;DHT22;49000;50.698;13.322;2024-02-21T06:38:58;5.00;1.00
62904;DHT22;49000;50.698;13.322;2024-02-21T06:41:23;4.80;1.00
62904;DHT22;49000;50.698;13.322;2024-02-21T06:43:49;4.90;1.00
62904;DHT22;49000;50.698;13.322;2024-02-21T06:46:27;4.90;1.00
62904;DHT22;49000;50.698;13.322;2024-02-21T06:48:54;5.00;1.00
62904;DHT22;49000;50.698;13.322;2024-02-21T06:51:21;4.70;1.00
62904;DHT22;49000;50.698;13.322;2024-02-21T06:53:47;4.70;1.00
62904;DHT22;49000;50.698;13.322;2024-02-21T06:56:13;5.10;1.00
62904;DHT22;49000;50.698;13.322;2024-02-21T06:58:38;5.00;1.00
62904;DHT22;49000;50.698;13.322;2024-02-21T07:01:04;5.10;1.00
62904;DHT22;49000;50.698;13.322;2024-02-21T07:03:29;5.20;1.00
62904;DHT22;49000;50.698;13.322;2024-02-21T07:05:54;5.00;1.00
62904;DHT22;49000;50.698;13.322;2024-02-21T07:08:20;4.70;1.00
62904;DHT22;49000;50.698;13.322;2024-02-21T07:10:45;4.80;1.00
62904;DHT22;49000;50.698;13.322;2024-02-21T07:13:11;5.20;1.00
62904;DHT22;49000;50.698;13.322;2024-02-21T07:15:36;5.30;1.00
62904;DHT22;49000;50.698;13.322;2024-02-21T07:18:03;5.20;1.00
62904;DHT22;49000;50.698;13.322;2024-02-21T07:20:28;5.20;1.00
62904;DHT22;49000;50.698;13.322;2024-02-21T07:22:54;4.90;1.00
62904;DHT22;49000;50.698;13.322;2024-02-21T07:25:19;5.30;1.00
62904;DHT22;49000;50.698;13.322;2024-02-21T07:27:45;5.40;1.00
62904;DHT22;49000;50.698;13.322;2024-02-21T07:30:11;4.90;1.00
62904;DHT22;49000;50.698;13.322;2024-02-21T07:32:36;5.30;1.00
62904;DHT22;49000;50.698;13.322;2024-02-21T07:35:02;5.00;1.00
62904;DHT22;49000;50.698;13.322;2024-02-21T07:37:27;5.60;1.00
62904;DHT22;49000;50.698;13.322;2024-02-21T07:39:53;5.10;1.00
62904;DHT22;49000;50.698;13.322;2024-02-21T07:42:18;5.80;1.00
62904;DHT22;49000;50.698;13.322;2024-02-21T07:44:44;5.30;1.00
62904;DHT22;49000;50.698;13.322;2024-02-21T07:47:09;5.70;1.00
62904;DHT22;49000;50.698;13.322;2024-02-21T07:49:43;5.90;1.00
62904;DHT22;49000;50.698;13.322;2024-02-21T07:52:09;5.60;1.00
62904;DHT22;49000;50.698;13.322;2024-02-21T07:54:35;5.80;1.00
62904;DHT22;49000;50.698;13.322;2024-02-21T07:57:00;5.60;1.00
62904;DHT22;49000;50.698;13.322;2024-02-21T07:59:26;6.10;1.00
62904;DHT22;49000;50.698;13.322;2024-02-21T08:01:51;6.10;1.00
62904;DHT22;49000;50.698;13.322;2024-02-21T08:04:17;5.90;1.00
62904;DHT22;49000;50.698;13.322;2024-02-21T08:06:42;5.70;1.00
62904;DHT22;49000;50.698;13.322;2024-02-21T08:09:10;6.20;1.00
62904;DHT22;49000;50.698;13.322;2024-02-21T08:11:35;5.80;1.00
62904;DHT22;49000;50.698;13.322;2024-02-21T08:14:01;5.70;1.00
62904;DHT22;49000;50.698;13.322;2024-02-21T08:16:27;5.70;1.00
62904;DHT22;49000;50.698;13.322;2024-02-21T08:18:52;6.10;1.00
62904;DHT22;49000;50.698;13.322;2024-02-21T08:21:18;5.90;1.00
62904;DHT22;49000;50.698;13.322;2024-02-21T08:23:43;6.40;1.00
62904;DHT22;49000;50.698;13.322;2024-02-21T08:26:09;5.90;1.00
62904;DHT22;49000;50.698;13.322;2024-02-21T08:28:35;6.10;1.00
62904;DHT22;49000;50.698;13.322;2024-02-21T08:31:00;6.50;1.00
62904;DHT22;49000;50.698;13.322;2024-02-21T08:33:26;6.60;1.00
62904;DHT22;49000;50.698;13.322;2024-02-21T08:35:52;6.30;1.00
62904;DHT22;49000;50.698;13.322;2024-02-21T08:38:17;6.10;1.00
62904;DHT22;49000;50.698;13.322;2024-02-21T08:40:44;6.30;1.00
62904;DHT22;49000;50.698;13.322;2024-02-21T08:43:09;6.60;1.00
62904;DHT22;49000;50.698;13.322;2024-02-21T08:45:34;6.40;1.00
62904;DHT22;49000;50.698;13.322;2024-02-21T08:48:00;6.50;1.00
62904;DHT22;49000;50.698;13.322;2024-02-21T08:50:25;6.70;99.90
62904;DHT22;49000;50.698;13.322;2024-02-21T08:52:52;6.90;99.90
62904;DHT22;49000;50.698;13.322;2024-02-21T08:55:18;7.50;99.90
62904;DHT22;49000;50.698;13.322;2024-02-21T08:57:43;7.70;99.90
62904;DHT22;49000;50.698;13.322;2024-02-21T09:00:09;7.80;99.90
62904;DHT22;49000;50.698;13.322;2024-02-21T09:02:37;7.70;99.90
62904;DHT22;49000;50.698;13.322;2024-02-21T09:05:03;7.30;99.90
62904;DHT22;49000;50.698;13.322;2024-02-21T09:07:30;7.60;99.90
62904;DHT22;49000;50.698;13.322;2024-02-21T09:09:56;7.60;99.90
62904;DHT22;49000;50.698;13.322;2024-02-21T09:12:21;7.20;99.90
62904;DHT22;49000;50.698;13.322;2024-02-21T09:14:47;7.20;99.90
62904;DHT22;49000;50.698;13.322;2024-02-21T09:17:16;7.40;99.90
62904;DHT22;49000;50.698;13.322;2024-02-21T09:19:42;7.50;99.90
62904;DHT22;49000;50.698;13.322;2024-02-21T09:22:08;7.00;99.90
62904;DHT22;49000;50.698;13.322;2024-02-21T09:24:33;7.30;99.90
62904;DHT22;49000;50.698;13.322;2024-02-21T09:26:59;7.40;99.90
62904;DHT22;49000;50.698;13.322;2024-02-21T09:29:25;7.70;99.90
62904;DHT22;49000;50.698;13.322;2024-02-21T09:31:51;8.20;99.90
62904;DHT22;49000;50.698;13.322;2024-02-21T09:34:16;8.50;99.90
62904;DHT22;49000;50.698;13.322;2024-02-21T09:36:42;8.80;99.90
62904;DHT22;49000;50.698;13.322;2024-02-21T09:39:07;8.70;99.90
62904;DHT22;49000;50.698;13.322;2024-02-21T09:41:36;8.60;99.90
62904;DHT22;49000;50.698;13.322;2024-02-21T09:44:02;8.50;99.90
62904;DHT22;49000;50.698;13.322;2024-02-21T09:51:43;8.00;99.90
62904;DHT22;49000;50.698;13.322;2024-02-21T09:54:10;8.00;99.90
62904;DHT22;49000;50.698;13.322;2024-02-21T09:56:35;8.00;99.90
62904;DHT22;49000;50.698;13.322;2024-02-21T09:59:01;7.70;99.90
62904;DHT22;49000;50.698;13.322;2024-02-21T10:01:30;8.10;99.90
62904;DHT22;49000;50.698;13.322;2024-02-21T10:03:57;8.00;99.90
62904;DHT22;49000;50.698;13.322;2024-02-21T10:06:22;8.00;99.90
62904;DHT22;49000;50.698;13.322;2024-02-21T10:08:54;8.10;99.90
62904;DHT22;49000;50.698;13.322;2024-02-21T10:11:24;8.30;99.90
62904;DHT22;49000;50.698;13.322;2024-02-21T10:13:49;8.50;99.90
62904;DHT22;49000;50.698;13.322;2024-02-21T10:16:15;8.90;99.90
62904;DHT22;49000;50.698;13.322;2024-02-21T10:18:41;9.20;99.90
62904;DHT22;49000;50.698;13.322;2024-02-21T10:21:07;9.40;99.90
62904;DHT22;49000;50.698;13.322;2024-02-21T10:23:47;9.60;99.90
62904;DHT22;49000;50.698;13.322;2024-02-21T10:26:14;9.50;99.90
62904;DHT22;49000;50.698;13.322;2024-02-21T10:28:39;9.90;99.90
62904;DHT22;49000;50.698;13.322;2024-02-21T10:31:25;10.10;99.90
62904;DHT22;49000;50.698;13.322;2024-02-21T10:36:20;9.90;99.90
62904;DHT22;49000;50.698;13.322;2024-02-21T10:38:45;9.70;99.90
62904;DHT22;49000;50.698;13.322;2024-02-21T10:41:14;9.60;99.90
62904;DHT22;49000;50.698;13.322;2024-02-21T10:43:40;9.80;99.90
62904;DHT22;49000;50.698;13.322;2024-02-21T10:46:07;9.70;99.90
62904;DHT22;49000;50.698;13.322;2024-02-21T10:48:42;9.80;99.90
62904;DHT22;49000;50.698;13.322;2024-02-21T10:51:15;10.00;99.90
62904;DHT22;49000;50.698;13.322;2024-02-21T10:56:35;10.00;99.90
62904;DHT22;49000;50.698;13.322;2024-02-21T10:59:05;10.00;99.90
62904;DHT22;49000;50.698;13.322;2024-02-21T11:01:31;9.90;99.90
62904;DHT22;49000;50.698;13.322;2024-02-21T11:04:03;9.70;99.90
62904;DHT22;49000;50.698;13.322;2024-02-21T11:06:29;9.60;99.90
62904;DHT22;49000;50.698;13.322;2024-02-21T11:09:06;9.80;99.90
62904;DHT22;49000;50.698;13.322;2024-02-21T11:11:44;10.00;99.90
62904;DHT22;49000;50.698;13.322;2024-02-21T11:14:11;10.00;99.90
62904;DHT22;49000;50.698;13.322;2024-02-21T11:16:38;10.10;99.90
62904;DHT22;49000;50.698;13.322;2024-02-21T11:19:08;10.10;99.90
62904;DHT22;49000;50.698;13.322;2024-02-21T11:21:37;10.30;99.90
62904;DHT22;49000;50.698;13.322;2024-02-21T11:24:04;10.30;99.90
62904;DHT22;49000;50.698;13.322;2024-02-21T11:26:30;10.40;99.90
62904;DHT22;49000;50.698;13.322;2024-02-21T11:29:00;10.30;99.90
62904;DHT22;49000;50.698;13.322;2024-02-21T11:31:26;10.20;99.90
62904;DHT22;49000;50.698;13.322;2024-02-21T11:33:54;10.40;99.90
62904;DHT22;49000;50.698;13.322;2024-02-21T11:36:27;10.40;99.90
62904;DHT22;49000;50.698;13.322;2024-02-21T11:38:52;10.40;99.90
62904;DHT22;49000;50.698;13.322;2024-02-21T11:41:19;10.60;99.90
62904;DHT22;49000;50.698;13.322;2024-02-21T11:43:46;10.80;99.90
62904;DHT22;49000;50.698;13.322;2024-02-21T11:46:13;10.80;99.90
62904;DHT22;49000;50.698;13.322;2024-02-21T11:48:41;11.00;99.90
62904;DHT22;49000;50.698;13.322;2024-02-21T11:51:06;11.10;99.90
62904;DHT22;49000;50.698;13.322;2024-02-21T11:53:32;11.00;99.90
62904;DHT22;49000;50.698;13.322;2024-02-21T11:55:58;11.30;99.90
62904;DHT22;49000;50.698;13.322;2024-02-21T11:58:24;11.40;99.90
62904;DHT22;49000;50.698;13.322;2024-02-21T12:00:50;11.40;99.90
62904;DHT22;49000;50.698;13.322;2024-02-21T12:03:16;11.20;99.90
62904;DHT22;49000;50.698;13.322;2024-02-21T12:05:41;11.20;99.90
62904;DHT22;49000;50.698;13.322;2024-02-21T12:08:07;11.40;99.90
62904;DHT22;49000;50.698;13.322;2024-02-21T12:10:35;11.50;99.90
62904;DHT22;49000;50.698;13.322;2024-02-21T12:13:08;11.70;99.90
62904;DHT22;49000;50.698;13.322;2024-02-21T12:15:34;11.90;99.90
62904;DHT22;49000;50.698;13.322;2024-02-21T12:18:00;12.00;99.90
62904;DHT22;49000;50.698;13.322;2024-02-21T12:20:26;11.90;99.90
62904;DHT22;49000;50.698;13.322;2024-02-21T12:22:51;11.80;99.90
62904;DHT22;49000;50.698;13.322;2024-02-21T12:25:20;11.90;99.90
62904;DHT22;49000;50.698;13.322;2024-02-21T12:27:48;12.10;99.90
62904;DHT22;49000;50.698;13.322;2024-02-21T12:30:14;12.40;99.90
62904;DHT22;49000;50.698;13.322;2024-02-21T12:32:40;12.70;99.90
62904;DHT22;49000;50.698;13.322;2024-02-21T12:35:07;12.50;99.90
62904;DHT22;49000;50.698;13.322;2024-02-21T12:37:32;12.60;99.90
62904;DHT22;49000;50.698;13.322;2024-02-21T12:39:58;12.30;99.90
62904;DHT22;49000;50.698;13.322;2024-02-21T12:42:24;12.20;99.90
62904;DHT22;49000;50.698;13.322;2024-02-21T12:44:51;12.10;99.90
62904;DHT22;49000;50.698;13.322;2024-02-21T12:47:18;11.90;99.90
62904;DHT22;49000;50.698;13.322;2024-02-21T12:49:45;11.80;99.90
62904;DHT22;49000;50.698;13.322;2024-02-21T12:52:11;11.70;99.90
62904;DHT22;49000;50.698;13.322;2024-02-21T12:54:36;11.50;99.90
62904;DHT22;49000;50.698;13.322;2024-02-21T12:57:02;11.70;99.90
62904;DHT22;49000;50.698;13.322;2024-02-21T12:59:29;11.60;99.90
62904;DHT22;49000;50.698;13.322;2024-02-21T13:01:54;11.50;99.90
62904;DHT22;49000;50.698;13.322;2024-02-21T13:04:20;11.50;99.90
62904;DHT22;49000;50.698;13.322;2024-02-21T13:06:48;11.50;99.90
62904;DHT22;49000;50.698;13.322;2024-02-21T13:09:14;11.40;99.90
62904;DHT22;49000;50.698;13.322;2024-02-21T13:11:40;11.20;99.90
62904;DHT22;49000;50.698;13.322;2024-02-21T13:14:06;11.10;99.90
62904;DHT22;49000;50.698;13.322;2024-02-21T13:16:31;11.10;99.90
62904;DHT22;49000;50.698;13.322;2024-02-21T13:18:59;11.20;99.90
62904;DHT22;49000;50.698;13.322;2024-02-21T13:21:25;11.50;99.90
62904;DHT22;49000;50.698;13.322;2024-02-21T13:23:51;11.70;99.90
62904;DHT22;49000;50.698;13.322;2024-02-21T13:26:16;12.10;99.90
62904;DHT22;49000;50.698;13.322;2024-02-21T13:28:42;12.40;99.90
62904;DHT22;49000;50.698;13.322;2024-02-21T13:31:10;12.60;99.90
62904;DHT22;49000;50.698;13.322;2024-02-21T13:33:35;12.70;99.90
62904;DHT22;49000;50.698;13.322;2024-02-21T13:36:01;12.70;99.90
62904;DHT22;49000;50.698;13.322;2024-02-21T13:38:28;12.70;99.90
62904;DHT22;49000;50.698;13.322;2024-02-21T13:40:54;12.80;99.90
62904;DHT22;49000;50.698;13.322;2024-02-21T13:43:19;12.80;99.90
62904;DHT22;49000;50.698;13.322;2024-02-21T13:45:58;12.70;99.90
62904;DHT22;49000;50.698;13.322;2024-02-21T13:48:24;12.80;99.90
62904;DHT22;49000;50.698;13.322;2024-02-21T13:50:50;13.00;99.90
62904;DHT22;49000;50.698;13.322;2024-02-21T13:53:15;12.90;99.90
62904;DHT22;49000;50.698;13.322;2024-02-21T13:55:46;12.80;99.90
62904;DHT22;49000;50.698;13.322;2024-02-21T13:58:12;12.80;99.90
62904;DHT22;49000;50.698;13.322;2024-02-21T14:00:37;13.00;99.90
62904;DHT22;49000;50.698;13.322;2024-02-21T14:03:03;13.20;99.90
62904;DHT22;49000;50.698;13.322;2024-02-21T14:05:29;13.40;99.90
62904;DHT22;49000;50.698;13.322;2024-02-21T14:07:55;13.70;99.90
62904;DHT22;49000;50.698;13.322;2024-02-21T14:10:21;13.70;99.90
62904;DHT22;49000;50.698;13.322;2024-02-21T14:12:47;13.70;97.00
62904;DHT22;49000;50.698;13.322;2024-02-21T14:15:13;13.90;99.10
62904;DHT22;49000;50.698;13.322;2024-02-21T14:17:39;14.10;96.60
62904;DHT22;49000;50.698;13.322;2024-02-21T14:20:06;14.20;91.70
62904;DHT22;49000;50.698;13.322;2024-02-21T14:22:32;14.30;84.00
62904;DHT22;49000;50.698;13.322;2024-02-21T14:24:58;14.30;91.80
62904;DHT22;49000;50.698;13.322;2024-02-21T14:27:23;14.40;86.40
62904;DHT22;49000;50.698;13.322;2024-02-21T14:29:49;14.30;84.20
62904;DHT22;49000;50.698;13.322;2024-02-21T14:32:14;14.40;83.50
62904;DHT22;49000;50.698;13.322;2024-02-21T14:34:40;14.60;88.80
62904;DHT22;49000;50.698;13.322;2024-02-21T14:37:05;14.90;82.40
62904;DHT22;49000;50.698;13.322;2024-02-21T14:39:31;14.90;91.00
62904;DHT22;49000;50.698;13.322;2024-02-21T14:41:59;14.80;77.10
62904;DHT22;49000;50.698;13.322;2024-02-21T14:44:25;14.80;88.10
62904;DHT22;49000;50.698;13.322;2024-02-21T14:46:51;15.10;75.80
62904;DHT22;49000;50.698;13.322;2024-02-21T14:49:16;14.80;82.60
62904;DHT22;49000;50.698;13.322;2024-02-21T14:51:42;14.90;82.10
62904;DHT22;49000;50.698;13.322;2024-02-21T14:54:07;14.90;61.50
62904;DHT22;49000;50.698;13.322;2024-02-21T14:56:33;15.10;87.00
62904;DHT22;49000;50.698;13.322;2024-02-21T14:58:59;15.50;80.20
62904;DHT22;49000;50.698;13.322;2024-02-21T15:01:24;15.60;61.30
62904;DHT22;49000;50.698;13.322;2024-02-21T15:03:50;15.20;46.00
62904;DHT22;49000;50.698;13.322;2024-02-21T15:06:16;14.90;62.90
62904;DHT22;49000;50.698;13.322;2024-02-21T15:08:42;14.60;46.10
62904;DHT22;49000;50.698;13.322;2024-02-21T15:11:08;14.20;49.20
62904;DHT22;49000;50.698;13.322;2024-02-21T15:13:33;13.90;53.20
62904;DHT22;49000;50.698;13.322;2024-02-21T15:15:59;13.70;50.50
62904;DHT22;49000;50.698;13.322;2024-02-21T15:18:24;13.30;48.50
62904;DHT22;49000;50.698;13.322;2024-02-21T15:20:50;13.00;55.50
62904;DHT22;49000;50.698;13.322;2024-02-21T15:23:15;12.70;50.50
62904;DHT22;49000;50.698;13.322;2024-02-21T15:25:42;12.50;55.50
62904;DHT22;49000;50.698;13.322;2024-02-21T15:28:09;12.30;61.10
62904;DHT22;49000;50.698;13.322;2024-02-21T15:30:36;12.30;62.90
62904;DHT22;49000;50.698;13.322;2024-02-21T15:33:01;12.30;66.90
62904;DHT22;49000;50.698;13.322;2024-02-21T15:35:30;12.10;59.70